Startpagina
METAR-TAF:

METAR-TAF

Vliegvelden :

Lagos, Nigeria

Murtala Muhammed International Airport

breedte: 06-35N, lengte: 003-20E, hoogte: 40 m

Actueel weer

Dit bericht is 1 uur en het 8 minuten geleden gemaakt, om 23:00 UTC
Wind 5 kt uit het westzuidwesten
Temperatuur 27°C
Vochtigheid 89%
Druk 1015 hPa
Zicht 10 km of meer
Weinig wolken op 1100 ft

METAR: DNMM 282300Z 24005KT 9999 FEW011 27/25 Q1015 NOSIG

Tijdstip: 01:08 (00:08 UTC)

Verwachting

Dit bericht is 2 uur en het 18 minuten geleden gemaakt, om 21:50 UTC
Verwachting geldig van 29 om 00 UTC tot 30 om 06 UTC
Wind 2 kt uit variabele richting
Zicht 10 km of meer
Weinig wolken op 1200 ft
Wijzigt naar
van 29 om 08 UTC tot 29 om 10 UTC
Wind 10 kt uit het westzuidwesten
Gebroken wolken op 1400 ft

TAF: DNMM 282150Z 2900/3006 VRB02KT 9999 FEW012 BECMG 2908/2910 24010KT BKN014

Waarnemingen en weersverwachtingen van meer dan 4000 vliegvelden (METAR en TAF).

De beschikbare stations zijn de gele en rode punten op de kaart.

Ga met uw muis naar het station om de naam te zien.

Klik dan om waarnemingen en weersverwachtingen te zien.

kaart wijzigen: klik op de groene knoppen met een zwart kruis om in te zoomen, op de groene knop met een streepje om uit te zoomen of op de groene pijlen voor aangrenzende kaarten.


METAR-TAF: